createdAt,value
2018-02-23T00:00:27.394Z,3.50
2018-02-23T00:02:55.089Z,2.90
2018-02-23T00:05:23.590Z,2.10
2018-02-23T00:07:51.185Z,3.50
2018-02-23T00:10:18.757Z,4.70
2018-02-23T00:12:47.244Z,4.30
2018-02-23T00:15:14.796Z,4.10
2018-02-23T00:17:42.345Z,3.00
2018-02-23T00:20:10.400Z,2.50
2018-02-23T00:22:42.412Z,2.80
2018-02-23T00:25:09.972Z,2.80
2018-02-23T00:27:38.324Z,5.50
2018-02-23T00:30:05.877Z,5.40
2018-02-23T00:32:33.542Z,5.60
2018-02-23T00:35:01.873Z,5.00
2018-02-23T00:37:29.443Z,4.90
2018-02-23T00:39:57.113Z,2.50
2018-02-23T00:42:24.699Z,1.80
2018-02-23T00:44:52.256Z,2.00
2018-02-23T00:47:19.913Z,3.40
2018-02-23T00:49:47.469Z,3.90
2018-02-23T00:52:15.034Z,1.80
2018-02-23T00:54:42.604Z,1.10
2018-02-23T00:57:10.152Z,0.90
2018-02-23T00:59:37.821Z,2.10
2018-02-23T01:02:05.387Z,0.90
2018-02-23T01:04:32.940Z,1.80
2018-02-23T01:07:00.594Z,4.00
2018-02-23T01:09:28.168Z,2.60
2018-02-23T01:11:55.824Z,2.70
2018-02-23T01:14:23.380Z,1.80
2018-02-23T01:16:50.953Z,1.40
2018-02-23T01:19:18.500Z,2.20
2018-02-23T01:21:46.068Z,3.70
2018-02-23T01:24:13.654Z,4.10
2018-02-23T01:26:41.220Z,4.50
2018-02-23T01:29:09.533Z,4.50
2018-02-23T01:31:37.208Z,4.50
2018-02-23T01:34:04.765Z,2.50
2018-02-23T01:36:32.371Z,1.10
2018-02-23T01:38:59.941Z,1.70
2018-02-23T01:41:28.264Z,0.40
2018-02-23T01:43:55.925Z,0.30
2018-02-23T01:46:23.503Z,-0.60
2018-02-23T01:48:51.171Z,-0.80
2018-02-23T01:51:18.736Z,-0.20
2018-02-23T01:53:46.321Z,-0.30
2018-02-23T01:56:14.683Z,1.30
2018-02-23T01:58:42.246Z,1.20
2018-02-23T02:01:10.573Z,0.90
2018-02-23T02:03:38.249Z,0.90
2018-02-23T02:06:05.911Z,2.40
2018-02-23T02:08:33.489Z,0.70
2018-02-23T02:11:01.059Z,0.00
2018-02-23T02:13:28.735Z,1.60
2018-02-23T02:15:56.314Z,1.00
2018-02-23T02:18:24.634Z,4.40
2018-02-23T02:20:52.209Z,4.40
2018-02-23T02:23:19.793Z,4.70
2018-02-23T02:25:47.346Z,3.80
2018-02-23T02:28:15.004Z,2.90
2018-02-23T02:30:42.807Z,2.00
2018-02-23T02:33:11.138Z,1.20
2018-02-23T02:35:38.692Z,1.10
2018-02-23T02:38:06.261Z,2.90
2018-02-23T02:40:33.903Z,3.60
2018-02-23T02:43:01.568Z,0.90
2018-02-23T02:45:29.172Z,1.20
2018-02-23T02:47:56.815Z,3.90
2018-02-23T02:50:24.365Z,4.90
2018-02-23T02:52:51.940Z,4.90
2018-02-23T02:55:19.507Z,2.90
2018-02-23T02:57:47.887Z,1.50
2018-02-23T03:00:15.480Z,1.40
2018-02-23T03:02:43.806Z,0.00
2018-02-23T03:05:11.356Z,-0.10
2018-02-23T03:07:38.939Z,-0.70
2018-02-23T03:10:06.493Z,0.00
2018-02-23T03:12:34.043Z,0.40
2018-02-23T03:15:01.720Z,-0.60
2018-02-23T03:17:29.277Z,0.40
2018-02-23T03:19:56.938Z,-0.60
2018-02-23T03:22:24.502Z,0.20
2018-02-23T03:24:52.153Z,0.80
2018-02-23T03:27:19.719Z,-0.10
2018-02-23T03:29:47.272Z,2.40
2018-02-23T03:32:14.832Z,3.30
2018-02-23T03:34:42.383Z,2.20
2018-02-23T03:37:09.992Z,0.30
2018-02-23T03:39:38.342Z,1.00
2018-02-23T03:42:06.005Z,0.90
2018-02-23T03:44:33.576Z,0.10
2018-02-23T03:47:01.233Z,2.30
2018-02-23T03:49:28.899Z,0.10
2018-02-23T03:51:56.547Z,0.90
2018-02-23T03:54:24.100Z,1.30
2018-02-23T03:56:51.747Z,2.20
2018-02-23T03:59:19.435Z,-0.10
2018-02-23T04:01:47.012Z,0.20
2018-02-23T04:04:14.665Z,1.10
2018-02-23T04:06:42.237Z,1.00
2018-02-23T04:09:09.876Z,0.70
2018-02-23T04:11:37.435Z,-0.90
2018-02-23T04:14:05.094Z,0.50
2018-02-23T04:16:32.653Z,0.50
2018-02-23T04:19:00.223Z,0.10
2018-02-23T04:21:27.812Z,-0.50
2018-02-23T04:23:56.237Z,1.20
2018-02-23T04:26:23.846Z,1.20
2018-02-23T04:28:52.282Z,0.70
2018-02-23T04:31:19.868Z,0.60
2018-02-23T04:33:47.427Z,-0.60
2018-02-23T04:36:15.000Z,-1.40
2018-02-23T04:38:42.648Z,-0.60
2018-02-23T04:41:10.208Z,-1.30
2018-02-23T04:43:37.786Z,-1.80
2018-02-23T04:46:05.426Z,-1.80
2018-02-23T04:48:33.098Z,-2.00
2018-02-23T04:51:00.672Z,-2.00
2018-02-23T04:53:28.238Z,-2.10
2018-02-23T04:55:56.607Z,-2.00
2018-02-23T04:58:24.184Z,-2.10
2018-02-23T05:00:52.608Z,-1.60
2018-02-23T05:03:20.182Z,-1.70
2018-02-23T05:05:47.759Z,-2.10
2018-02-23T05:08:15.333Z,-2.00
2018-02-23T05:10:42.894Z,-2.00
2018-02-23T05:13:10.537Z,-1.80
2018-02-23T05:15:38.083Z,-1.40
2018-02-23T05:18:05.735Z,-1.70
2018-02-23T05:20:33.315Z,-2.10
2018-02-23T05:23:00.993Z,-2.10
2018-02-23T05:25:28.551Z,-2.10
2018-02-23T05:27:56.132Z,-2.20
2018-02-23T05:30:24.475Z,-1.40
2018-02-23T05:32:52.041Z,-1.50
2018-02-23T05:35:19.620Z,-1.20
2018-02-23T05:37:47.189Z,-0.80
2018-02-23T05:40:15.551Z,-1.80
2018-02-23T05:42:43.134Z,-1.90
2018-02-23T05:45:11.464Z,-2.00
2018-02-23T05:47:39.033Z,-2.10
2018-02-23T05:50:06.615Z,-2.20
2018-02-23T05:52:34.189Z,-2.10
2018-02-23T05:55:02.542Z,-2.30
2018-02-23T05:57:30.666Z,-2.30
2018-02-23T05:59:58.258Z,-2.00
2018-02-23T06:02:25.912Z,-0.50
2018-02-23T06:04:53.510Z,-1.80
2018-02-23T06:07:22.589Z,-2.40
2018-02-23T06:09:50.162Z,-2.50
2018-02-23T06:12:17.769Z,-2.50
2018-02-23T06:14:46.094Z,-1.90
2018-02-23T06:17:19.260Z,-2.00
2018-02-23T06:19:52.432Z,-2.00
2018-02-23T06:22:20.013Z,-1.80
2018-02-23T06:24:47.588Z,-1.30
2018-02-23T06:27:15.146Z,-0.60
2018-02-23T06:29:42.722Z,-1.80
2018-02-23T06:32:10.276Z,-1.30
2018-02-23T06:34:37.964Z,-1.90
2018-02-23T06:37:05.602Z,-1.80
2018-02-23T06:39:33.181Z,-2.00
2018-02-23T06:42:00.826Z,-2.00
2018-02-23T06:44:28.400Z,-1.30
2018-02-23T06:47:01.627Z,-1.80
2018-02-23T06:49:29.316Z,-2.20
2018-02-23T06:51:56.977Z,-2.10
2018-02-23T06:54:24.561Z,-1.90
2018-02-23T06:56:52.179Z,-2.30
2018-02-23T06:59:19.761Z,-2.70
2018-02-23T07:01:47.326Z,2.00
2018-02-23T07:04:15.022Z,-0.60
2018-02-23T07:06:44.099Z,-2.20
2018-02-23T07:09:11.669Z,-2.20
2018-02-23T07:11:39.336Z,-2.50
2018-02-23T07:14:06.903Z,-2.40
2018-02-23T07:16:35.344Z,-2.60
2018-02-23T07:19:03.016Z,-2.60
2018-02-23T07:21:30.667Z,-2.60
2018-02-23T07:23:58.333Z,-2.10
2018-02-23T07:26:25.899Z,-2.20
2018-02-23T07:28:53.474Z,-0.80
2018-02-23T07:31:21.038Z,-1.30
2018-02-23T07:33:48.616Z,-1.40
2018-02-23T07:36:16.948Z,-0.10
2018-02-23T07:38:44.622Z,-0.10
2018-02-23T07:41:12.208Z,1.00
2018-02-23T07:43:39.771Z,-0.20
2018-02-23T07:46:08.850Z,-0.60
2018-02-23T07:48:36.442Z,-0.50
2018-02-23T07:51:04.778Z,-0.30
2018-02-23T07:53:32.428Z,-0.30
2018-02-23T07:56:00.025Z,-0.70
2018-02-23T07:58:28.349Z,1.00
2018-02-23T08:00:55.912Z,0.90
2018-02-23T08:03:23.595Z,0.60
2018-02-23T08:05:51.160Z,0.50
2018-02-23T08:08:18.729Z,1.70
2018-02-23T08:10:46.308Z,1.10
2018-02-23T08:13:14.652Z,4.20
2018-02-23T08:15:42.223Z,4.10
2018-02-23T08:18:09.815Z,2.40
2018-02-23T08:20:37.379Z,2.00
2018-02-23T08:23:04.935Z,2.70
2018-02-23T08:25:32.515Z,1.00
2018-02-23T08:28:00.853Z,3.20
2018-02-23T08:30:28.598Z,3.20
2018-02-23T08:32:56.187Z,5.50
2018-02-23T08:35:23.747Z,7.00
2018-02-23T08:37:51.309Z,4.70
2018-02-23T08:40:18.899Z,3.50
2018-02-23T08:42:47.318Z,4.30
2018-02-23T08:45:14.902Z,4.30
2018-02-23T08:47:42.487Z,4.10
2018-02-23T08:50:10.837Z,2.90
2018-02-23T08:52:38.399Z,2.80
2018-02-23T08:55:05.982Z,1.60
2018-02-23T08:57:33.541Z,2.20
2018-02-23T09:00:01.111Z,3.80
2018-02-23T09:02:29.477Z,6.00
2018-02-23T09:04:57.033Z,5.90
2018-02-23T09:07:24.595Z,2.10
2018-02-23T09:09:52.264Z,3.50
2018-02-23T09:12:19.839Z,6.90
2018-02-23T09:14:48.157Z,5.50
2018-02-23T09:17:15.851Z,5.50
2018-02-23T09:19:43.413Z,6.80
2018-02-23T09:22:11.068Z,6.80
2018-02-23T09:24:38.659Z,6.10
2018-02-23T09:27:07.006Z,4.70
2018-02-23T09:29:34.566Z,4.60
2018-02-23T09:32:02.153Z,5.90
2018-02-23T09:34:37.607Z,5.20
2018-02-23T09:37:05.952Z,5.80
2018-02-23T09:39:33.510Z,5.70
2018-02-23T09:42:01.088Z,5.80
2018-02-23T09:44:29.472Z,5.70
2018-02-23T09:46:57.120Z,5.60
2018-02-23T09:49:25.441Z,5.90
2018-02-23T09:51:53.029Z,5.80
2018-02-23T09:54:20.609Z,6.00
2018-02-23T09:56:48.180Z,5.90
2018-02-23T09:59:15.766Z,4.60
2018-02-23T10:01:44.110Z,5.20
2018-02-23T10:04:11.778Z,5.10
2018-02-23T10:06:39.357Z,4.00
2018-02-23T10:09:06.921Z,4.00
2018-02-23T10:11:35.354Z,4.40
2018-02-23T10:14:02.939Z,4.40
2018-02-23T10:16:30.496Z,6.30
2018-02-23T10:18:58.041Z,6.00
2018-02-23T10:21:25.612Z,5.50
2018-02-23T10:23:53.284Z,4.50
2018-02-23T10:26:20.963Z,4.20
2018-02-23T10:28:48.603Z,4.60
2018-02-23T10:31:16.160Z,4.20
2018-02-23T10:33:43.846Z,3.90
2018-02-23T10:36:12.213Z,4.00
2018-02-23T10:38:39.843Z,4.00
2018-02-23T10:41:07.406Z,4.50
2018-02-23T10:43:34.964Z,7.80
2018-02-23T10:46:02.523Z,7.60
2018-02-23T10:48:30.094Z,7.60
2018-02-23T10:57:40.538Z,8.70
2018-02-23T11:00:08.095Z,7.30
2018-02-23T11:02:35.644Z,5.00
2018-02-23T11:05:03.212Z,3.70
2018-02-23T11:07:30.770Z,4.80
2018-02-23T11:09:58.320Z,6.00
2018-02-23T11:12:25.978Z,7.60
2018-02-23T11:14:53.519Z,6.40
2018-02-23T11:17:21.175Z,5.60
2018-02-23T11:19:48.747Z,7.70
2018-02-23T11:22:16.302Z,8.30
2018-02-23T11:24:43.958Z,7.40
2018-02-23T11:27:11.656Z,6.40
2018-02-23T11:29:39.214Z,5.30
2018-02-23T11:32:06.868Z,5.40
2018-02-23T11:34:34.437Z,4.40
2018-02-23T11:37:01.989Z,5.00
2018-02-23T11:39:29.539Z,5.40
2018-02-23T11:41:57.324Z,9.00
2018-02-23T11:44:26.388Z,8.40
2018-02-23T11:46:53.930Z,8.40
2018-02-23T11:49:21.492Z,9.50
2018-02-23T11:51:49.116Z,8.60
2018-02-23T11:54:17.447Z,8.10
2018-02-23T11:56:45.031Z,8.00
2018-02-23T11:59:12.601Z,7.90
2018-02-23T12:01:40.151Z,9.50
2018-02-23T12:04:07.746Z,10.20
2018-02-23T12:06:36.108Z,10.10
2018-02-23T12:09:03.658Z,10.10
2018-02-23T12:11:31.231Z,10.00
2018-02-23T12:13:58.768Z,8.90
2018-02-23T12:16:26.326Z,9.50
2018-02-23T12:18:53.967Z,9.10
2018-02-23T12:21:21.612Z,7.40
2018-02-23T12:23:49.127Z,8.80
2018-02-23T12:26:16.767Z,9.30
2018-02-23T12:28:44.331Z,9.50
2018-02-23T12:31:11.886Z,9.40
2018-02-23T12:33:39.568Z,9.60
2018-02-23T12:36:07.114Z,9.80
2018-02-23T12:38:34.779Z,10.80
2018-02-23T12:41:02.343Z,11.00
2018-02-23T12:43:29.892Z,10.40
2018-02-23T12:45:57.559Z,10.50
2018-02-23T12:48:25.136Z,11.60
2018-02-23T12:50:52.689Z,11.50
2018-02-23T12:53:20.354Z,11.90
2018-02-23T12:55:48.737Z,11.50
2018-02-23T12:58:16.311Z,11.40
2018-02-23T13:00:44.665Z,11.70
2018-02-23T13:03:12.230Z,11.60
2018-02-23T13:05:39.824Z,12.00
2018-02-23T13:08:07.450Z,11.40
2018-02-23T13:10:35.024Z,11.00
2018-02-23T13:13:02.671Z,11.70
2018-02-23T13:15:30.231Z,9.10
2018-02-23T13:17:57.915Z,10.10
2018-02-23T13:20:25.557Z,10.40
2018-02-23T13:22:53.214Z,11.40
2018-02-23T13:25:20.797Z,11.10
2018-02-23T13:27:54.147Z,9.70
2018-02-23T13:30:21.807Z,9.00
2018-02-23T13:32:49.354Z,9.60
2018-02-23T13:35:17.030Z,10.60
2018-02-23T13:37:44.611Z,9.60
2018-02-23T13:40:12.163Z,10.90
2018-02-23T13:42:39.814Z,11.50
2018-02-23T13:45:07.392Z,11.90
2018-02-23T13:47:34.949Z,10.70
2018-02-23T13:50:02.517Z,9.20
2018-02-23T13:52:30.093Z,10.60
2018-02-23T13:54:58.757Z,11.20
2018-02-23T13:57:26.324Z,12.00
2018-02-23T13:59:53.891Z,10.00
2018-02-23T14:02:21.451Z,8.60
2018-02-23T14:04:48.998Z,7.80
2018-02-23T14:07:22.365Z,8.00
2018-02-23T14:09:49.926Z,9.50
2018-02-23T14:12:17.470Z,9.50
2018-02-23T14:14:45.056Z,9.80
2018-02-23T14:17:12.613Z,8.90
2018-02-23T14:19:40.172Z,9.60
2018-02-23T14:22:07.739Z,9.90
2018-02-23T14:24:35.400Z,9.00
2018-02-23T14:27:03.063Z,8.50
2018-02-23T14:29:30.730Z,8.90
2018-02-23T14:31:58.327Z,10.70
2018-02-23T14:34:26.685Z,11.20
2018-02-23T14:36:54.260Z,11.10
2018-02-23T14:39:21.817Z,10.60
2018-02-23T14:41:49.367Z,11.40
2018-02-23T14:44:17.469Z,9.70
2018-02-23T14:46:45.900Z,9.00
2018-02-23T14:49:20.137Z,8.90
2018-02-23T14:51:47.700Z,7.90
2018-02-23T14:54:15.251Z,9.70
2018-02-23T14:56:42.916Z,11.60
2018-02-23T14:59:10.475Z,12.10
2018-02-23T15:01:38.029Z,10.70
2018-02-23T15:04:05.713Z,9.30
2018-02-23T15:06:33.265Z,7.80
2018-02-23T15:09:00.829Z,7.80
2018-02-23T15:11:28.495Z,7.30
2018-02-23T15:13:56.066Z,7.20
2018-02-23T15:16:23.628Z,7.50
2018-02-23T15:18:51.198Z,7.60
2018-02-23T15:21:19.551Z,6.10
2018-02-23T15:23:47.134Z,6.10
2018-02-23T15:26:14.701Z,5.90
2018-02-23T15:28:43.008Z,8.70
2018-02-23T15:31:22.358Z,8.60
2018-02-23T15:33:50.028Z,8.60
2018-02-23T15:36:17.688Z,8.40
2018-02-23T15:38:45.277Z,8.40
2018-02-23T15:41:12.939Z,8.70
2018-02-23T15:43:40.483Z,7.30
2018-02-23T15:46:08.043Z,7.10
2018-02-23T15:48:41.192Z,6.80
2018-02-23T15:54:13.693Z,7.70
2018-02-23T15:56:41.279Z,8.10
2018-02-23T15:59:08.848Z,7.00
2018-02-23T16:01:36.498Z,7.30
2018-02-23T16:04:04.079Z,7.40
2018-02-23T16:06:31.642Z,8.60
2018-02-23T16:08:59.193Z,6.60
2018-02-23T16:11:26.780Z,7.00
2018-02-23T16:13:54.353Z,7.20
2018-02-23T16:16:22.670Z,8.00
2018-02-23T16:18:50.246Z,8.00
2018-02-23T16:21:17.900Z,7.60
2018-02-23T16:23:45.461Z,7.40
2018-02-23T16:26:13.039Z,7.90
2018-02-23T16:28:40.703Z,6.10
2018-02-23T16:31:08.260Z,6.40
2018-02-23T16:33:35.816Z,5.50
2018-02-23T16:36:03.392Z,7.50
2018-02-23T16:38:30.967Z,7.20
2018-02-23T16:40:58.547Z,7.60
2018-02-23T16:43:26.895Z,4.50
2018-02-23T16:45:54.447Z,4.40
2018-02-23T16:48:22.032Z,4.00
2018-02-23T16:50:49.596Z,3.70
2018-02-23T16:53:17.939Z,3.70
2018-02-23T16:55:45.496Z,3.60
2018-02-23T16:58:13.042Z,3.80
2018-02-23T17:00:40.612Z,5.70
2018-02-23T17:03:08.181Z,4.60
2018-02-23T17:05:35.725Z,4.00
2018-02-23T17:08:03.294Z,4.70
2018-02-23T17:10:30.869Z,4.80
2018-02-23T17:12:58.433Z,4.10
2018-02-23T17:15:26.010Z,3.70
2018-02-23T17:17:54.692Z,3.30
2018-02-23T17:20:22.250Z,4.80
2018-02-23T17:22:49.809Z,6.30
2018-02-23T17:25:17.480Z,5.00
2018-02-23T17:27:45.017Z,5.20
2018-02-23T17:30:12.568Z,4.10
2018-02-23T17:32:40.139Z,4.80
2018-02-23T17:35:07.906Z,4.50
2018-02-23T17:37:35.547Z,3.20
2018-02-23T17:40:03.113Z,2.70
2018-02-23T17:42:30.673Z,3.00
2018-02-23T17:44:58.234Z,5.40
2018-02-23T17:47:25.810Z,4.60
2018-02-23T17:49:53.354Z,5.80
2018-02-23T17:52:20.896Z,8.30
2018-02-23T17:54:48.573Z,7.90
2018-02-23T17:57:16.121Z,5.30
2018-02-23T17:59:43.694Z,5.10
2018-02-23T18:02:11.263Z,6.30
2018-02-23T18:04:38.925Z,5.60
2018-02-23T18:07:06.473Z,6.20
2018-02-23T18:09:34.053Z,4.50
2018-02-23T18:12:01.710Z,5.40
2018-02-23T18:14:29.365Z,5.60
2018-02-23T18:16:56.931Z,4.70
2018-02-23T18:19:24.495Z,4.70
2018-02-23T18:21:52.044Z,2.70
2018-02-23T18:24:19.722Z,1.90
2018-02-23T18:26:47.259Z,2.00
2018-02-23T18:29:14.816Z,1.90
2018-02-23T18:31:42.366Z,2.60
2018-02-23T18:34:09.958Z,3.70
2018-02-23T18:36:37.774Z,2.50
2018-02-23T18:39:05.675Z,3.40
2018-02-23T18:41:33.224Z,4.60
2018-02-23T18:44:00.773Z,4.60
2018-02-23T18:46:28.344Z,4.10
2018-02-23T18:48:55.927Z,4.50
2018-02-23T18:51:23.579Z,3.60
2018-02-23T18:53:51.161Z,3.00
2018-02-23T18:56:18.728Z,3.60
2018-02-23T18:58:46.286Z,7.00
2018-02-23T19:01:13.932Z,8.40
2018-02-23T19:03:41.477Z,2.70
2018-02-23T19:06:09.032Z,1.60
2018-02-23T19:08:36.577Z,1.40
2018-02-23T19:11:04.125Z,1.30
2018-02-23T19:13:32.439Z,1.00
2018-02-23T19:16:00.012Z,1.00
2018-02-23T19:18:27.545Z,1.40
2018-02-23T19:20:55.118Z,2.50
2018-02-23T19:23:22.685Z,3.90
2018-02-23T19:25:50.218Z,3.70
2018-02-23T19:28:17.745Z,2.60
2018-02-23T19:30:46.072Z,2.80
2018-02-23T19:33:13.638Z,2.80
2018-02-23T19:35:41.187Z,1.80
2018-02-23T19:38:08.775Z,2.60
2018-02-23T19:40:36.359Z,2.80
2018-02-23T19:43:04.688Z,4.70
2018-02-23T19:45:32.251Z,4.70
2018-02-23T19:47:59.795Z,5.80
2018-02-23T19:50:27.340Z,3.70
2018-02-23T19:52:54.951Z,3.20
2018-02-23T19:55:22.512Z,4.00
2018-02-23T19:57:50.059Z,3.10
2018-02-23T20:00:17.618Z,3.70
2018-02-23T20:02:45.169Z,2.10
2018-02-23T20:05:12.735Z,2.10
2018-02-23T20:07:40.296Z,3.20
2018-02-23T20:10:07.903Z,3.20
2018-02-23T20:12:36.240Z,3.70
2018-02-23T20:15:03.829Z,3.70
2018-02-23T20:17:32.162Z,2.80
2018-02-23T20:19:59.749Z,2.70
2018-02-23T20:22:27.334Z,3.50
2018-02-23T20:24:54.890Z,4.00
2018-02-23T20:27:23.198Z,4.70
2018-02-23T20:29:50.816Z,4.60
2018-02-23T20:32:18.361Z,2.70
2018-02-23T20:34:45.964Z,1.90
2018-02-23T20:37:14.412Z,2.00
2018-02-23T20:39:42.966Z,1.90
2018-02-23T20:42:10.528Z,0.80
2018-02-23T20:44:38.106Z,1.80
2018-02-23T20:47:05.853Z,2.10
2018-02-23T20:49:33.440Z,2.30
2018-02-23T20:52:01.003Z,3.50
2018-02-23T20:54:28.555Z,2.90
2018-02-23T20:56:56.116Z,3.50
2018-02-23T20:59:23.679Z,2.10
2018-02-23T21:01:51.228Z,2.50
2018-02-23T21:04:18.762Z,1.40
2018-02-23T21:06:46.340Z,1.00
2018-02-23T21:09:13.877Z,3.30
2018-02-23T21:11:41.449Z,1.80
2018-02-23T21:14:09.048Z,1.50
2018-02-23T21:16:36.624Z,2.30
2018-02-23T21:19:04.165Z,1.80
2018-02-23T21:21:31.805Z,4.10
2018-02-23T21:23:59.345Z,3.70
2018-02-23T21:26:26.895Z,2.60
2018-02-23T21:28:54.474Z,1.50
2018-02-23T21:31:22.027Z,0.90
2018-02-23T21:33:49.621Z,1.70
2018-02-23T21:36:17.173Z,2.50
2018-02-23T21:38:44.707Z,3.50
2018-02-23T21:41:12.250Z,2.30
2018-02-23T21:43:40.567Z,3.90
2018-02-23T21:46:08.121Z,3.90
2018-02-23T21:48:35.692Z,2.00
2018-02-23T21:51:03.244Z,2.60
2018-02-23T21:53:30.846Z,2.50
2018-02-23T21:55:59.179Z,2.60
2018-02-23T21:58:26.751Z,2.50
2018-02-23T22:00:54.310Z,2.20
2018-02-23T22:03:21.862Z,1.70
2018-02-23T22:05:49.462Z,3.30
2018-02-23T22:08:17.016Z,1.30
2018-02-23T22:10:44.644Z,0.80
2018-02-23T22:13:12.438Z,0.80
2018-02-23T22:15:40.958Z,-0.20
2018-02-23T22:18:09.413Z,0.10
2018-02-23T22:20:37.862Z,-0.40
2018-02-23T22:23:05.530Z,-0.40
2018-02-23T22:25:33.237Z,-0.20
2018-02-23T22:28:00.821Z,0.30
2018-02-23T22:30:28.391Z,0.80
2018-02-23T22:32:56.143Z,1.50
2018-02-23T22:35:24.029Z,1.60
2018-02-23T22:37:51.600Z,0.90
2018-02-23T22:40:19.146Z,0.00
2018-02-23T22:42:47.435Z,-0.40
2018-02-23T22:45:14.993Z,1.20
2018-02-23T22:47:42.539Z,1.30
2018-02-23T22:50:10.319Z,0.60
2018-02-23T22:52:37.885Z,0.80
2018-02-23T22:55:05.427Z,1.00
2018-02-23T22:57:32.988Z,1.10
2018-02-23T23:00:00.533Z,0.90
2018-02-23T23:02:28.096Z,-0.40
2018-02-23T23:04:55.687Z,0.80
2018-02-23T23:07:23.247Z,1.20
2018-02-23T23:09:50.795Z,2.20
2018-02-23T23:12:18.365Z,2.60
2018-02-23T23:14:46.022Z,1.20
2018-02-23T23:17:13.581Z,1.60
2018-02-23T23:19:41.145Z,1.20
2018-02-23T23:22:08.699Z,0.20
2018-02-23T23:24:36.274Z,0.40
2018-02-23T23:27:03.839Z,0.60
2018-02-23T23:29:31.400Z,0.50
2018-02-23T23:31:59.057Z,2.10
2018-02-23T23:34:26.615Z,2.50
2018-02-23T23:36:54.161Z,0.60
2018-02-23T23:39:21.814Z,-0.50
2018-02-23T23:41:49.501Z,-0.50
2018-02-23T23:44:17.051Z,-0.30
2018-02-23T23:46:44.635Z,0.20
2018-02-23T23:49:12.195Z,1.40
2018-02-23T23:51:39.840Z,2.60
2018-02-23T23:54:07.398Z,0.70
2018-02-23T23:56:35.057Z,0.80
2018-02-23T23:59:02.609Z,2.00
